Time;durP1;ratioP1;P1;durP2;ratioP2;P2;SDS_P1;SDS_P2;PMS_P1;PMS_P2;Temp;Humidity;BMP_temperature;BMP_pressure;BME280_temperature;BME280_humidity;BME280_pressure;Samples;Min_cycle;Max_cycle;Signal;HPM_P1;HPM_P2
2024/01/02 00:01:37;;;;;;;6.65;1.40;;;;;;;;;;5018334;28;20065;-77
2024/01/02 00:04:03;;;;;;;7.40;1.67;;;;;;;;;;5010002;28;20057;-76
2024/01/02 00:06:28;;;;;;;5.93;1.15;;;;;;;;;;5018971;28;20175;-75
2024/01/02 00:08:54;;;;;;;7.53;1.20;;;;;;;;;;4996796;28;20049;-76
2024/01/02 00:11:19;;;;;;;8.45;1.15;;;;;;;;;;5006960;28;20056;-74
2024/01/02 00:13:45;;;;;;;3.78;1.15;;;;;;;;;;5002377;28;20422;-75
2024/01/02 00:16:11;;;;;;;6.32;1.67;;;;;;;;;;5018249;28;20071;-76
2024/01/02 00:18:36;;;;;;;5.93;1.27;;;;;;;;;;5018978;28;20044;-76
2024/01/02 00:21:02;;;;;;;7.80;1.20;;;;;;;;;;5016015;28;20042;-76
2024/01/02 00:23:27;;;;;;;3.42;0.82;;;;;;;;;;5008759;28;20049;-76
2024/01/02 00:25:53;;;;;;;10.73;1.35;;;;;;;;;;5011640;28;20059;-74
2024/01/02 00:28:18;;;;;;;3.83;0.70;;;;;;;;;;5000760;28;20731;-75
2024/01/02 00:30:44;;;;;;;3.17;0.70;;;;;;;;;;5014808;28;20053;-74
2024/01/02 00:33:10;;;;;;;11.35;1.42;;;;;;;;;;4998372;28;20061;-75
2024/01/02 00:35:36;;;;;;;6.15;1.65;;;;;;;;;;4991062;28;20083;-75
2024/01/02 00:38:02;;;;;;;9.55;1.52;;;;;;;;;;4990072;28;20500;-76
2024/01/02 00:40:27;;;;;;;1.65;0.70;;;;;;;;;;5013855;28;20399;-76
2024/01/02 00:42:53;;;;;;;4.07;1.05;;;;;;;;;;5000202;28;20065;-75
2024/01/02 00:45:18;;;;;;;9.70;1.67;;;;;;;;;;5017953;28;20131;-75
2024/01/02 00:47:43;;;;;;;5.13;1.30;;;;;;;;;;5014677;28;20041;-76
2024/01/02 00:50:09;;;;;;;8.00;1.67;;;;;;;;;;5020343;28;20056;-76
2024/01/02 00:52:35;;;;;;;7.25;1.58;;;;;;;;;;5015884;28;20104;-75
2024/01/02 00:55:01;;;;;;;9.13;1.73;;;;;;;;;;5009296;28;20041;-76
2024/01/02 00:57:27;;;;;;;8.23;1.98;;;;;;;;;;5004080;28;20041;-75
2024/01/02 00:59:52;;;;;;;6.40;1.30;;;;;;;;;;5018744;28;20652;-75
2024/01/02 01:02:17;;;;;;;7.80;1.55;;;;;;;;;;5013671;28;20108;-75
2024/01/02 01:04:43;;;;;;;12.52;2.00;;;;;;;;;;5010691;28;20545;-75
2024/01/02 01:07:09;;;;;;;8.18;1.55;;;;;;;;;;5011920;28;20037;-76
2024/01/02 01:09:35;;;;;;;10.25;1.70;;;;;;;;;;5008786;28;20092;-75
2024/01/02 01:12:00;;;;;;;4.72;0.90;;;;;;;;;;5004635;28;20146;-75
2024/01/02 01:14:25;;;;;;;4.07;1.17;;;;;;;;;;4997684;28;20042;-76
2024/01/02 01:16:51;;;;;;;9.07;3.03;;;;;;;;;;4996229;28;20123;-76
2024/01/02 01:19:16;;;;;;;8.65;1.50;;;;;;;;;;4996409;28;20576;-77
2024/01/02 01:21:41;;;;;;;7.70;1.33;;;;;;;;;;5001995;28;20044;-77
2024/01/02 01:24:07;;;;;;;5.70;1.85;;;;;;;;;;5013476;28;20125;-76
2024/01/02 01:26:32;;;;;;;9.10;1.80;;;;;;;;;;5002051;28;20041;-77
2024/01/02 01:28:58;;;;;;;8.93;1.67;;;;;;;;;;5015234;28;20038;-77
2024/01/02 01:31:23;;;;;;;3.90;1.75;;;;;;;;;;5015688;28;20510;-77
2024/01/02 01:33:48;;;;;;;6.43;1.05;;;;;;;;;;5003612;28;20041;-76
2024/01/02 01:36:14;;;;;;;4.40;1.30;;;;;;;;;;5016347;28;20087;-77
2024/01/02 01:38:39;;;;;;;5.88;1.20;;;;;;;;;;5018524;28;20040;-77
2024/01/02 01:41:04;;;;;;;3.50;0.95;;;;;;;;;;4987460;28;20037;-77
2024/01/02 01:43:30;;;;;;;4.05;1.10;;;;;;;;;;5012333;28;20045;-77
2024/01/02 01:45:55;;;;;;;3.70;1.60;;;;;;;;;;5013063;28;20033;-77
2024/01/02 01:48:21;;;;;;;4.03;0.93;;;;;;;;;;5015058;28;20132;-76
2024/01/02 01:50:48;;;;;;;6.05;1.23;;;;;;;;;;5004334;28;20037;-77
2024/01/02 01:53:14;;;;;;;5.10;1.17;;;;;;;;;;4995022;28;20037;-77
2024/01/02 01:55:40;;;;;;;5.70;1.05;;;;;;;;;;4972350;28;20042;-77
2024/01/02 01:58:06;;;;;;;4.75;1.52;;;;;;;;;;5012258;28;20040;-77
2024/01/02 02:00:32;;;;;;;3.65;1.13;;;;;;;;;;5009384;28;20580;-77
2024/01/02 02:02:59;;;;;;;3.92;1.30;;;;;;;;;;4994991;28;20520;-77
2024/01/02 02:05:28;;;;;;;4.20;1.95;;;;;;;;;;5002836;28;20153;-77
2024/01/02 02:07:54;;;;;;;7.03;1.25;;;;;;;;;;4995844;28;20683;-76
2024/01/02 02:10:20;;;;;;;1.65;1.00;;;;;;;;;;5010533;28;20048;-76
2024/01/02 02:12:46;;;;;;;3.70;1.30;;;;;;;;;;5008164;28;20905;-75
2024/01/02 02:15:11;;;;;;;4.03;1.10;;;;;;;;;;4997748;28;20048;-77
2024/01/02 02:17:37;;;;;;;2.95;1.00;;;;;;;;;;5012927;28;20037;-76
2024/01/02 02:20:03;;;;;;;6.00;1.55;;;;;;;;;;5012751;28;20069;-76
2024/01/02 02:22:38;;;;;;;5.60;1.40;;;;;;;;;;4997312;28;20045;-75
2024/01/02 02:25:06;;;;;;;4.82;1.50;;;;;;;;;;5009824;28;20426;-76
2024/01/02 02:27:33;;;;;;;4.40;1.17;;;;;;;;;;5009539;28;20046;-77
2024/01/02 02:29:58;;;;;;;4.88;1.52;;;;;;;;;;5013701;28;20121;-75
2024/01/02 02:32:24;;;;;;;3.90;1.15;;;;;;;;;;5007399;28;20498;-74
2024/01/02 02:34:49;;;;;;;6.03;1.75;;;;;;;;;;5001862;28;20091;-76
2024/01/02 02:37:15;;;;;;;4.15;1.23;;;;;;;;;;4999391;28;20041;-74
2024/01/02 02:39:40;;;;;;;7.72;1.30;;;;;;;;;;5014932;28;20156;-76
2024/01/02 02:42:05;;;;;;;5.53;1.20;;;;;;;;;;5014217;28;20057;-76
2024/01/02 02:44:33;;;;;;;3.90;1.40;;;;;;;;;;5012982;28;20724;-76
2024/01/02 02:46:59;;;;;;;5.03;1.73;;;;;;;;;;5011319;28;20068;-77
2024/01/02 02:49:25;;;;;;;7.88;1.30;;;;;;;;;;4999763;28;20042;-76
2024/01/02 02:51:51;;;;;;;3.47;1.10;;;;;;;;;;5010595;28;20120;-76
2024/01/02 02:54:16;;;;;;;5.70;1.40;;;;;;;;;;5013483;28;20120;-76
2024/01/02 02:56:43;;;;;;;2.78;1.23;;;;;;;;;;5017734;28;20058;-75
2024/01/02 02:59:10;;;;;;;5.15;1.25;;;;;;;;;;4997581;28;20116;-75
2024/01/02 03:01:35;;;;;;;5.07;1.35;;;;;;;;;;5011244;28;20053;-75
2024/01/02 03:04:00;;;;;;;4.80;1.10;;;;;;;;;;5008132;28;20384;-75
2024/01/02 03:06:26;;;;;;;2.50;1.30;;;;;;;;;;5013966;28;20068;-75
2024/01/02 03:08:51;;;;;;;3.22;1.00;;;;;;;;;;5009301;28;20096;-76
2024/01/02 03:11:17;;;;;;;5.30;1.20;;;;;;;;;;5010512;28;20037;-75
2024/01/02 03:13:42;;;;;;;3.55;1.02;;;;;;;;;;4995458;28;20057;-76
2024/01/02 03:16:09;;;;;;;4.93;0.90;;;;;;;;;;5011248;28;20051;-76
2024/01/02 03:18:35;;;;;;;1.67;0.70;;;;;;;;;;4983875;28;20041;-75
2024/01/02 03:21:00;;;;;;;3.25;1.45;;;;;;;;;;5018866;28;20036;-76
2024/01/02 03:23:25;;;;;;;3.67;0.90;;;;;;;;;;5016360;28;20648;-76
2024/01/02 03:25:51;;;;;;;3.90;1.02;;;;;;;;;;5016246;28;20135;-76
2024/01/02 03:28:16;;;;;;;2.53;0.90;;;;;;;;;;5018643;28;20454;-75
2024/01/02 03:30:42;;;;;;;1.25;0.73;;;;;;;;;;5020828;28;20044;-75
2024/01/02 03:33:07;;;;;;;1.98;0.80;;;;;;;;;;5004287;28;20038;-76
2024/01/02 03:35:33;;;;;;;4.18;0.77;;;;;;;;;;5014488;28;20095;-76
2024/01/02 03:37:58;;;;;;;6.53;0.95;;;;;;;;;;5010666;28;20045;-75
2024/01/02 03:40:23;;;;;;;1.60;0.75;;;;;;;;;;5012268;28;20073;-75
2024/01/02 03:42:49;;;;;;;1.98;0.80;;;;;;;;;;5015226;28;20708;-75
2024/01/02 03:45:14;;;;;;;1.17;0.93;;;;;;;;;;5020306;28;20092;-75
2024/01/02 03:47:40;;;;;;;6.03;0.93;;;;;;;;;;5006124;28;20053;-75
2024/01/02 03:50:06;;;;;;;3.65;0.80;;;;;;;;;;5013631;28;20041;-76
2024/01/02 03:52:31;;;;;;;3.83;1.02;;;;;;;;;;5013297;28;20207;-77
2024/01/02 03:54:57;;;;;;;2.15;0.82;;;;;;;;;;5001314;28;20065;-77
2024/01/02 03:57:23;;;;;;;1.45;0.90;;;;;;;;;;5008746;28;20132;-76
2024/01/02 03:59:48;;;;;;;2.60;0.80;;;;;;;;;;5017675;28;20060;-75
2024/01/02 04:02:14;;;;;;;3.00;0.90;;;;;;;;;;5000069;28;20046;-75
2024/01/02 04:04:39;;;;;;;4.28;1.33;;;;;;;;;;4997773;28;20041;-76
2024/01/02 04:07:04;;;;;;;3.28;1.10;;;;;;;;;;5003375;28;20148;-76
2024/01/02 04:09:30;;;;;;;1.02;0.88;;;;;;;;;;5009546;28;20041;-75
2024/01/02 04:11:55;;;;;;;0.77;0.60;;;;;;;;;;5014912;28;20129;-76
2024/01/02 04:14:20;;;;;;;4.22;1.05;;;;;;;;;;5014753;28;20061;-76
2024/01/02 04:16:46;;;;;;;4.07;1.08;;;;;;;;;;5008526;28;20439;-76
2024/01/02 04:19:11;;;;;;;2.00;0.80;;;;;;;;;;4999467;28;20151;-76
2024/01/02 04:21:37;;;;;;;1.40;0.82;;;;;;;;;;4998466;28;20187;-76
2024/01/02 04:24:02;;;;;;;3.40;0.98;;;;;;;;;;5013248;28;20580;-75
2024/01/02 04:26:27;;;;;;;2.78;1.05;;;;;;;;;;5007269;28;20767;-76
2024/01/02 04:28:53;;;;;;;0.88;0.70;;;;;;;;;;4994145;28;20680;-75
2024/01/02 04:31:18;;;;;;;1.58;0.50;;;;;;;;;;5011929;28;20049;-76
2024/01/02 04:33:43;;;;;;;2.05;0.88;;;;;;;;;;5010837;28;20128;-76
2024/01/02 04:36:09;;;;;;;2.30;0.90;;;;;;;;;;5015230;28;20045;-75
2024/01/02 04:38:35;;;;;;;1.50;0.70;;;;;;;;;;5017190;28;20263;-75
2024/01/02 04:41:02;;;;;;;2.00;0.90;;;;;;;;;;5014560;28;20099;-75
2024/01/02 04:43:27;;;;;;;1.00;0.60;;;;;;;;;;5001823;28;20088;-75
2024/01/02 04:45:53;;;;;;;2.28;0.77;;;;;;;;;;5010288;28;20037;-76
2024/01/02 04:48:18;;;;;;;1.95;0.70;;;;;;;;;;5011336;28;20041;-76
2024/01/02 04:50:44;;;;;;;3.47;1.48;;;;;;;;;;4997452;28;20132;-76
2024/01/02 04:53:09;;;;;;;1.90;0.60;;;;;;;;;;5015983;28;20549;-75
2024/01/02 04:55:34;;;;;;;1.38;0.60;;;;;;;;;;5008519;28;20052;-75
2024/01/02 04:58:02;;;;;;;3.33;1.10;;;;;;;;;;4979213;28;20123;-75
2024/01/02 05:00:28;;;;;;;1.05;0.45;;;;;;;;;;4996713;28;20637;-75
2024/01/02 05:02:53;;;;;;;2.80;0.80;;;;;;;;;;5010034;28;20045;-75
2024/01/02 05:05:18;;;;;;;1.98;0.98;;;;;;;;;;5010373;28;20049;-75
2024/01/02 05:07:45;;;;;;;1.30;0.60;;;;;;;;;;4987827;28;20043;-75
2024/01/02 05:10:10;;;;;;;1.40;0.80;;;;;;;;;;4998440;28;20038;-76
2024/01/02 05:12:35;;;;;;;1.27;0.60;;;;;;;;;;4999011;28;20053;-75
2024/01/02 05:15:01;;;;;;;0.73;0.40;;;;;;;;;;5005083;28;20052;-76
2024/01/02 05:17:26;;;;;;;2.05;0.90;;;;;;;;;;5012461;28;20049;-75
2024/01/02 05:19:51;;;;;;;1.77;0.90;;;;;;;;;;5007768;28;20049;-76
2024/01/02 05:22:17;;;;;;;1.80;0.57;;;;;;;;;;5012384;28;20045;-74
2024/01/02 05:24:43;;;;;;;0.43;0.43;;;;;;;;;;5015650;28;20096;-74
2024/01/02 05:27:08;;;;;;;1.23;0.60;;;;;;;;;;5003510;28;20036;-74
2024/01/02 05:29:36;;;;;;;1.80;0.52;;;;;;;;;;4999923;28;20056;-75
2024/01/02 05:32:02;;;;;;;0.80;0.60;;;;;;;;;;5010492;28;20088;-75
2024/01/02 05:34:29;;;;;;;0.35;0.35;;;;;;;;;;5011153;28;20087;-74
2024/01/02 05:36:55;;;;;;;0.52;0.52;;;;;;;;;;5008835;28;20069;-75
2024/01/02 05:39:20;;;;;;;1.80;0.80;;;;;;;;;;5010893;28;20092;-76
2024/01/02 05:41:46;;;;;;;0.20;0.20;;;;;;;;;;5000603;28;20042;-74
2024/01/02 05:44:11;;;;;;;1.45;0.68;;;;;;;;;;5018301;28;20126;-75
2024/01/02 05:46:36;;;;;;;1.35;0.75;;;;;;;;;;5014878;28;20060;-75
2024/01/02 05:49:02;;;;;;;0.60;0.60;;;;;;;;;;5016070;28;20763;-75
2024/01/02 05:51:27;;;;;;;1.63;0.52;;;;;;;;;;4995985;28;20045;-75
2024/01/02 05:53:53;;;;;;;0.82;0.80;;;;;;;;;;5008399;28;20516;-76
2024/01/02 05:56:18;;;;;;;0.77;0.40;;;;;;;;;;5001242;28;20050;-76
2024/01/02 05:58:44;;;;;;;1.30;0.60;;;;;;;;;;5012555;28;20049;-76
2024/01/02 06:01:10;;;;;;;1.08;0.50;;;;;;;;;;4992894;28;20034;-76
2024/01/02 06:03:36;;;;;;;3.72;0.60;;;;;;;;;;5007524;28;20059;-76
2024/01/02 06:06:01;;;;;;;0.75;0.57;;;;;;;;;;5015836;28;20037;-75
2024/01/02 06:08:26;;;;;;;1.25;0.40;;;;;;;;;;5012453;28;20452;-77
2024/01/02 06:10:52;;;;;;;0.20;0.20;;;;;;;;;;5001148;28;20066;-75
2024/01/02 06:13:17;;;;;;;0.40;0.35;;;;;;;;;;5011883;28;20076;-77
2024/01/02 06:15:42;;;;;;;0.30;0.30;;;;;;;;;;5012437;28;20506;-75
2024/01/02 06:18:08;;;;;;;0.65;0.20;;;;;;;;;;5009942;28;20124;-74
2024/01/02 06:20:33;;;;;;;1.75;0.30;;;;;;;;;;5010660;28;20065;-75
2024/01/02 06:22:58;;;;;;;2.00;0.38;;;;;;;;;;5008186;28;20049;-75
2024/01/02 06:25:24;;;;;;;0.38;0.25;;;;;;;;;;5005459;28;20112;-77
2024/01/02 06:27:49;;;;;;;0.52;0.30;;;;;;;;;;5007381;28;20494;-78
2024/01/02 06:30:15;;;;;;;2.25;0.30;;;;;;;;;;5013540;28;20057;-78
2024/01/02 06:32:40;;;;;;;1.98;0.32;;;;;;;;;;5010116;28;20038;-78
2024/01/02 06:35:05;;;;;;;0.43;0.30;;;;;;;;;;5013380;28;20045;-77
2024/01/02 06:37:31;;;;;;;0.80;0.20;;;;;;;;;;5003277;28;20061;-78
2024/01/02 06:39:57;;;;;;;0.28;0.28;;;;;;;;;;5013756;28;20065;-77
2024/01/02 06:42:22;;;;;;;1.25;0.20;;;;;;;;;;5014469;28;20584;-76
2024/01/02 06:44:48;;;;;;;0.25;0.20;;;;;;;;;;5019831;28;20045;-77
2024/01/02 06:47:13;;;;;;;1.20;0.30;;;;;;;;;;4998355;28;20042;-76
2024/01/02 06:49:39;;;;;;;0.13;0.13;;;;;;;;;;5004563;28;20038;-77
2024/01/02 06:52:05;;;;;;;0.20;0.20;;;;;;;;;;5004645;28;20461;-76
2024/01/02 06:54:30;;;;;;;0.20;0.10;;;;;;;;;;5017029;28;20046;-76
2024/01/02 06:56:56;;;;;;;0.30;0.30;;;;;;;;;;5014892;28;20063;-76
2024/01/02 06:59:22;;;;;;;1.30;0.73;;;;;;;;;;5015146;28;20045;-76
2024/01/02 07:01:47;;;;;;;0.20;0.20;;;;;;;;;;5018640;28;20610;-76
2024/01/02 07:04:12;;;;;;;1.20;0.20;;;;;;;;;;5019011;28;20038;-75
2024/01/02 07:06:38;;;;;;;0.17;0.15;;;;;;;;;;5003926;28;20064;-75
2024/01/02 07:09:04;;;;;;;0.10;0.10;;;;;;;;;;4996941;28;20402;-76
2024/01/02 07:11:29;;;;;;;0.15;0.15;;;;;;;;;;5004286;28;20059;-76
2024/01/02 07:13:55;;;;;;;0.65;0.20;;;;;;;;;;5005064;28;20049;-76
2024/01/02 07:16:20;;;;;;;0.25;0.20;;;;;;;;;;5014102;28;20406;-76
2024/01/02 07:18:45;;;;;;;0.40;0.40;;;;;;;;;;5011624;28;20120;-75
2024/01/02 07:21:11;;;;;;;1.08;0.98;;;;;;;;;;5003342;28;20552;-76
2024/01/02 07:23:36;;;;;;;1.98;1.23;;;;;;;;;;5024256;28;20041;-76
2024/01/02 07:26:02;;;;;;;1.42;0.80;;;;;;;;;;5014461;28;20037;-76
2024/01/02 07:28:28;;;;;;;0.73;0.40;;;;;;;;;;4992773;28;20037;-76
2024/01/02 07:30:54;;;;;;;0.20;0.20;;;;;;;;;;4990732;28;20045;-76
2024/01/02 07:33:19;;;;;;;0.47;0.30;;;;;;;;;;5013955;28;20060;-76
2024/01/02 07:35:45;;;;;;;0.82;0.28;;;;;;;;;;4997445;28;20046;-75
2024/01/02 07:38:10;;;;;;;0.25;0.20;;;;;;;;;;5015180;28;20048;-75
2024/01/02 07:40:35;;;;;;;0.20;0.20;;;;;;;;;;4996922;28;20088;-75
2024/01/02 07:43:01;;;;;;;0.47;0.20;;;;;;;;;;5014995;28;20079;-75
2024/01/02 07:45:28;;;;;;;1.23;0.30;;;;;;;;;;4995056;28;20971;-76
2024/01/02 07:47:54;;;;;;;0.35;0.22;;;;;;;;;;4996401;28;20080;-75
2024/01/02 07:50:19;;;;;;;0.38;0.15;;;;;;;;;;4997747;28;20042;-76
2024/01/02 07:52:47;;;;;;;0.20;0.20;;;;;;;;;;5010827;28;20204;-75
2024/01/02 07:55:12;;;;;;;0.17;0.17;;;;;;;;;;5018193;28;20064;-75
2024/01/02 07:57:38;;;;;;;0.22;0.20;;;;;;;;;;5012818;28;20546;-75
2024/01/02 08:00:04;;;;;;;0.20;0.20;;;;;;;;;;5016987;28;20162;-77
2024/01/02 08:02:30;;;;;;;0.40;0.20;;;;;;;;;;5010804;28;20052;-75
2024/01/02 08:04:55;;;;;;;0.30;0.30;;;;;;;;;;4987146;28;20034;-75
2024/01/02 08:07:23;;;;;;;0.30;0.30;;;;;;;;;;5008173;28;20052;-76
2024/01/02 08:09:49;;;;;;;0.32;0.30;;;;;;;;;;5004444;28;20599;-76
2024/01/02 08:12:14;;;;;;;0.30;0.30;;;;;;;;;;5007795;28;20038;-76
2024/01/02 08:14:40;;;;;;;1.42;0.90;;;;;;;;;;5015153;28;20045;-76
2024/01/02 08:17:05;;;;;;;0.60;0.30;;;;;;;;;;4992516;28;20593;-75
2024/01/02 08:19:30;;;;;;;1.15;0.40;;;;;;;;;;5009910;28;22407;-75
2024/01/02 08:21:56;;;;;;;6.60;4.35;;;;;;;;;;5001697;28;20037;-76
2024/01/02 08:24:21;;;;;;;2.78;1.98;;;;;;;;;;5010151;28;20131;-76
2024/01/02 08:26:47;;;;;;;0.70;0.40;;;;;;;;;;5009010;28;20041;-77
2024/01/02 08:29:12;;;;;;;0.90;0.60;;;;;;;;;;4995789;28;20089;-76
2024/01/02 08:31:37;;;;;;;1.45;0.80;;;;;;;;;;5001484;28;20041;-76
2024/01/02 08:34:04;;;;;;;0.43;0.40;;;;;;;;;;5012394;28;20074;-76
2024/01/02 08:36:29;;;;;;;1.35;0.85;;;;;;;;;;5003246;28;20144;-76
2024/01/02 08:38:56;;;;;;;1.42;0.82;;;;;;;;;;5001027;28;20574;-76
2024/01/02 08:41:21;;;;;;;11.70;6.85;;;;;;;;;;5013384;28;20525;-76
2024/01/02 08:43:47;;;;;;;2.35;1.83;;;;;;;;;;5016187;28;20045;-75
2024/01/02 08:46:13;;;;;;;1.00;0.50;;;;;;;;;;5001345;28;20527;-76
2024/01/02 08:48:38;;;;;;;0.70;0.30;;;;;;;;;;5011184;28;20814;-75
2024/01/02 08:51:04;;;;;;;0.60;0.60;;;;;;;;;;5000449;28;20044;-76
2024/01/02 08:53:30;;;;;;;1.60;1.00;;;;;;;;;;5008619;28;20132;-75
2024/01/02 08:55:55;;;;;;;0.95;0.70;;;;;;;;;;4985419;28;20103;-76
2024/01/02 08:58:22;;;;;;;0.65;0.40;;;;;;;;;;5013567;28;20045;-75
2024/01/02 09:00:47;;;;;;;0.63;0.22;;;;;;;;;;5000613;28;20506;-75
2024/01/02 09:03:14;;;;;;;0.60;0.60;;;;;;;;;;5023599;28;20403;-76
2024/01/02 09:05:39;;;;;;;0.40;0.40;;;;;;;;;;4997954;28;20044;-76
2024/01/02 09:08:05;;;;;;;0.45;0.45;;;;;;;;;;4998793;28;20049;-76
2024/01/02 09:10:30;;;;;;;0.22;0.22;;;;;;;;;;5002877;28;20046;-76
2024/01/02 09:12:56;;;;;;;0.93;0.93;;;;;;;;;;5013565;28;20095;-75
2024/01/02 09:15:21;;;;;;;0.40;0.40;;;;;;;;;;5001234;28;20042;-75
2024/01/02 09:17:46;;;;;;;0.90;0.70;;;;;;;;;;5001811;28;20045;-75
2024/01/02 09:20:12;;;;;;;1.30;0.95;;;;;;;;;;5011682;28;20580;-75
2024/01/02 09:22:38;;;;;;;1.58;0.60;;;;;;;;;;5011185;28;20572;-75
2024/01/02 09:25:04;;;;;;;0.88;0.70;;;;;;;;;;5015485;28;20038;-75
2024/01/02 09:27:31;;;;;;;0.20;0.20;;;;;;;;;;5002080;28;20046;-75
2024/01/02 09:29:58;;;;;;;0.40;0.30;;;;;;;;;;4999548;28;20619;-75
2024/01/02 09:32:24;;;;;;;1.10;0.60;;;;;;;;;;4998449;28;20064;-76
2024/01/02 09:34:50;;;;;;;0.45;0.35;;;;;;;;;;5009499;28;20041;-75
2024/01/02 09:37:16;;;;;;;0.80;0.40;;;;;;;;;;5017508;28;20056;-76
2024/01/02 09:39:43;;;;;;;0.88;0.77;;;;;;;;;;4990615;28;20185;-76
2024/01/02 09:42:27;;;;;;;2.15;1.05;;;;;;;;;;5011270;28;20118;-76
2024/01/02 09:45:13;;;;;;;0.20;0.20;;;;;;;;;;4995493;28;20528;-76
2024/01/02 09:47:45;;;;;;;0.20;0.20;;;;;;;;;;5016073;28;20049;-75
2024/01/02 09:50:29;;;;;;;0.20;0.20;;;;;;;;;;5010815;28;20094;-75
2024/01/02 09:53:16;;;;;;;0.30;0.30;;;;;;;;;;5019616;28;20033;-76
2024/01/02 09:55:58;;;;;;;0.20;0.20;;;;;;;;;;5006239;28;20061;-76
2024/01/02 09:58:49;;;;;;;0.20;0.20;;;;;;;;;;5005081;28;20041;-75
2024/01/02 10:01:21;;;;;;;;;;;;;;;;;;5018450;28;20041;-75
2024/01/02 10:04:09;;;;;;;0.10;0.10;;;;;;;;;;5015950;28;19930;-75
2024/01/02 10:07:12;;;;;;;0.50;0.20;;;;;;;;;;4993808;28;20087;-75
2024/01/02 10:09:51;;;;;;;0.20;0.10;;;;;;;;;;5019759;28;20035;-75
2024/01/02 10:12:46;;;;;;;0.20;0.20;;;;;;;;;;5010053;28;20045;-75
2024/01/02 10:15:20;;;;;;;0.20;0.20;;;;;;;;;;4979890;28;20129;-75
2024/01/02 10:18:06;;;;;;;0.20;0.20;;;;;;;;;;4977159;28;20046;-75
2024/01/02 10:20:51;;;;;;;0.28;0.22;;;;;;;;;;4989894;28;20133;-76
2024/01/02 10:23:44;;;;;;;0.10;0.10;;;;;;;;;;5011706;28;20045;-75
2024/01/02 10:26:09;;;;;;;0.30;0.20;;;;;;;;;;4983945;28;20138;-75
2024/01/02 10:28:41;;;;;;;0.10;0.10;;;;;;;;;;5006489;28;20124;-75
2024/01/02 10:31:11;;;;;;;0.20;0.20;;;;;;;;;;5003111;28;20053;-76
2024/01/02 10:33:45;;;;;;;0.20;0.20;;;;;;;;;;5014791;28;20075;-75
2024/01/02 10:36:12;;;;;;;0.20;0.20;;;;;;;;;;5020992;28;20066;-75
2024/01/02 10:39:05;;;;;;;0.20;0.20;;;;;;;;;;5008428;28;20041;-76
2024/01/02 10:41:57;;;;;;;0.77;0.40;;;;;;;;;;5016923;28;20123;-76
2024/01/02 10:45:07;;;;;;;0.20;0.20;;;;;;;;;;5019342;28;20033;-76
2024/01/02 10:47:52;;;;;;;0.30;0.30;;;;;;;;;;4943739;28;20221;-76
2024/01/02 10:50:23;;;;;;;1.08;0.20;;;;;;;;;;4954044;28;20045;-77
2024/01/02 10:53:18;;;;;;;0.65;0.45;;;;;;;;;;4992043;28;20545;-75
2024/01/02 10:55:50;;;;;;;0.30;0.30;;;;;;;;;;5001814;28;20056;-76
2024/01/02 10:58:25;;;;;;;0.30;0.30;;;;;;;;;;4993878;28;20040;-76
2024/01/02 11:01:09;;;;;;;0.63;0.40;;;;;;;;;;5020411;28;20045;-76
2024/01/02 11:03:41;;;;;;;0.20;0.20;;;;;;;;;;5020610;28;20037;-76
2024/01/02 11:06:24;;;;;;;0.32;0.25;;;;;;;;;;5015125;28;20856;-76
2024/01/02 11:09:01;;;;;;;0.43;0.30;;;;;;;;;;4999294;28;20050;-76
2024/01/02 11:11:29;;;;;;;0.35;0.35;;;;;;;;;;4992165;28;20057;-77
2024/01/02 11:13:56;;;;;;;0.68;0.30;;;;;;;;;;5006660;28;20037;-75
2024/01/02 11:16:26;;;;;;;0.20;0.20;;;;;;;;;;4997279;28;20057;-76
2024/01/02 11:18:55;;;;;;;0.32;0.30;;;;;;;;;;5003503;28;20045;-76
2024/01/02 11:21:23;;;;;;;0.30;0.30;;;;;;;;;;4996808;28;20059;-76
2024/01/02 11:23:53;;;;;;;0.35;0.15;;;;;;;;;;4997137;28;20049;-76
2024/01/02 11:26:25;;;;;;;0.20;0.20;;;;;;;;;;5009960;28;20045;-76
2024/01/02 11:29:00;;;;;;;0.32;0.30;;;;;;;;;;4998464;28;20033;-76
2024/01/02 11:31:29;;;;;;;0.80;0.47;;;;;;;;;;5015777;28;20053;-74
2024/01/02 11:34:22;;;;;;;0.30;0.30;;;;;;;;;;5007910;28;20048;-77
2024/01/02 11:37:25;;;;;;;0.30;0.30;;;;;;;;;;5013327;28;20041;-76
2024/01/02 11:40:03;;;;;;;0.80;0.32;;;;;;;;;;5012131;28;20052;-76
2024/01/02 11:42:46;;;;;;;0.32;0.32;;;;;;;;;;4990275;28;20049;-75
2024/01/02 11:45:22;;;;;;;0.80;0.43;;;;;;;;;;5014148;28;20158;-76
2024/01/02 11:48:12;;;;;;;0.47;0.38;;;;;;;;;;5017622;28;20391;-76
2024/01/02 11:50:50;;;;;;;0.65;0.50;;;;;;;;;;5007738;28;20033;-75
2024/01/02 11:53:28;;;;;;;0.93;0.38;;;;;;;;;;5015335;28;20515;-76
2024/01/02 11:56:03;;;;;;;0.70;0.70;;;;;;;;;;5015575;28;20696;-75
2024/01/02 11:59:03;;;;;;;0.75;0.47;;;;;;;;;;5009178;28;20101;-75
2024/01/02 12:01:42;;;;;;;0.43;0.43;;;;;;;;;;4985217;28;20051;-76
2024/01/02 12:04:44;;;;;;;0.30;0.30;;;;;;;;;;5010884;28;20045;-74
2024/01/02 12:07:21;;;;;;;0.43;0.30;;;;;;;;;;4999121;28;20045;-76
2024/01/02 12:09:49;;;;;;;1.25;0.70;;;;;;;;;;4996183;28;20047;-75
2024/01/02 12:12:45;;;;;;;3.10;1.23;;;;;;;;;;5011447;28;20075;-75
2024/01/02 12:15:13;;;;;;;0.63;0.38;;;;;;;;;;5011672;28;20040;-75
2024/01/02 12:17:43;;;;;;;0.40;0.40;;;;;;;;;;5009711;28;20045;-75
2024/01/02 12:20:11;;;;;;;0.50;0.50;;;;;;;;;;4996482;28;20053;-75
2024/01/02 12:22:36;;;;;;;0.85;0.65;;;;;;;;;;5006883;28;20046;-75
2024/01/02 12:25:09;;;;;;;0.30;0.30;;;;;;;;;;5009118;28;20041;-75
2024/01/02 12:27:37;;;;;;;0.43;0.43;;;;;;;;;;5008965;28;20069;-75
2024/01/02 12:30:04;;;;;;;0.40;0.40;;;;;;;;;;5011812;28;20045;-75
2024/01/02 12:32:51;;;;;;;0.85;0.40;;;;;;;;;;5011586;28;20132;-75
2024/01/02 12:35:31;;;;;;;1.48;0.45;;;;;;;;;;4980626;28;20062;-75
2024/01/02 12:38:03;;;;;;;0.32;0.32;;;;;;;;;;4989546;28;20117;-75
2024/01/02 12:40:31;;;;;;;0.40;0.40;;;;;;;;;;4997700;28;20135;-76
2024/01/02 12:42:58;;;;;;;0.43;0.43;;;;;;;;;;4993171;28;20037;-76
2024/01/02 12:45:30;;;;;;;0.47;0.40;;;;;;;;;;4996431;28;20113;-76
2024/01/02 12:48:00;;;;;;;1.08;0.47;;;;;;;;;;4969051;28;20047;-75
2024/01/02 12:50:27;;;;;;;0.30;0.30;;;;;;;;;;5016288;28;20098;-75
2024/01/02 12:53:08;;;;;;;0.43;0.40;;;;;;;;;;5018777;28;20065;-75
2024/01/02 12:55:37;;;;;;;0.32;0.30;;;;;;;;;;5003379;28;20456;-75
2024/01/02 12:58:06;;;;;;;0.52;0.30;;;;;;;;;;4991019;28;20045;-75
2024/01/02 13:00:32;;;;;;;0.50;0.32;;;;;;;;;;5015467;28;20041;-77
2024/01/02 13:02:58;;;;;;;0.20;0.20;;;;;;;;;;5000432;28;20053;-75
2024/01/02 13:05:25;;;;;;;1.02;0.40;;;;;;;;;;5018304;28;20037;-76
2024/01/02 13:07:51;;;;;;;0.50;0.35;;;;;;;;;;5012341;28;20794;-75
2024/01/02 13:10:23;;;;;;;0.55;0.55;;;;;;;;;;5017117;28;20143;-75
2024/01/02 13:12:50;;;;;;;0.38;0.32;;;;;;;;;;5002358;28;20054;-75
2024/01/02 13:15:17;;;;;;;0.40;0.40;;;;;;;;;;4998738;28;20156;-76
2024/01/02 13:17:42;;;;;;;0.10;0.10;;;;;;;;;;5010019;28;20057;-75
2024/01/02 13:20:10;;;;;;;0.20;0.20;;;;;;;;;;5022063;28;20037;-76
2024/01/02 13:22:36;;;;;;;0.35;0.35;;;;;;;;;;4985600;28;20073;-76
2024/01/02 13:25:13;;;;;;;0.40;0.40;;;;;;;;;;5001299;28;20029;-76
2024/01/02 13:27:39;;;;;;;0.40;0.40;;;;;;;;;;5013164;28;20033;-74
2024/01/02 13:30:04;;;;;;;0.30;0.30;;;;;;;;;;4993564;28;20580;-76
2024/01/02 13:32:30;;;;;;;0.25;0.25;;;;;;;;;;5005949;28;20514;-76
2024/01/02 13:35:13;;;;;;;0.52;0.40;;;;;;;;;;5009263;28;20045;-75
2024/01/02 13:37:39;;;;;;;0.20;0.20;;;;;;;;;;4998154;28;20048;-75
2024/01/02 13:40:17;;;;;;;0.30;0.30;;;;;;;;;;5013497;28;20049;-75
2024/01/02 13:42:42;;;;;;;0.40;0.40;;;;;;;;;;5016908;28;20040;-75
2024/01/02 13:45:22;;;;;;;0.52;0.38;;;;;;;;;;5011438;28;20041;-75
2024/01/02 13:47:47;;;;;;;0.30;0.30;;;;;;;;;;5012499;28;20099;-76
2024/01/02 13:50:14;;;;;;;0.55;0.55;;;;;;;;;;5009528;28;20090;-75
2024/01/02 13:52:44;;;;;;;0.40;0.40;;;;;;;;;;4987989;28;20041;-75
2024/01/02 13:55:10;;;;;;;0.22;0.22;;;;;;;;;;4992207;28;20089;-75
2024/01/02 13:57:36;;;;;;;2.13;0.20;;;;;;;;;;4997225;28;20053;-75
2024/01/02 14:00:16;;;;;;;0.50;0.50;;;;;;;;;;5009531;28;20141;-75
2024/01/02 14:02:56;;;;;;;0.22;0.22;;;;;;;;;;4993478;28;20638;-75
2024/01/02 14:05:27;;;;;;;0.30;0.30;;;;;;;;;;4983737;28;20041;-75
2024/01/02 14:07:53;;;;;;;0.28;0.28;;;;;;;;;;4996546;28;20766;-76
2024/01/02 14:10:38;;;;;;;0.57;0.32;;;;;;;;;;4995951;28;20481;-76
2024/01/02 14:13:04;;;;;;;0.10;0.10;;;;;;;;;;5000528;28;20042;-75
2024/01/02 14:15:31;;;;;;;1.05;0.30;;;;;;;;;;5010845;28;20072;-76
2024/01/02 14:18:03;;;;;;;1.77;0.70;;;;;;;;;;5002820;28;20045;-75
2024/01/02 14:20:33;;;;;;;1.35;1.23;;;;;;;;;;5015526;28;20136;-75
2024/01/02 14:23:31;;;;;;;1.05;0.95;;;;;;;;;;5012464;28;20145;-75
2024/01/02 14:26:19;;;;;;;0.85;0.80;;;;;;;;;;4979763;28;20611;-75
2024/01/02 14:29:00;;;;;;;3.15;2.15;;;;;;;;;;5000314;28;20048;-76
2024/01/02 14:31:44;;;;;;;2.78;1.75;;;;;;;;;;4979959;28;20137;-75
2024/01/02 14:34:32;;;;;;;9.77;4.50;;;;;;;;;;4976678;28;20053;-75
2024/01/02 14:37:08;;;;;;;1.27;0.88;;;;;;;;;;4992103;28;20061;-75
2024/01/02 14:39:41;;;;;;;0.98;0.80;;;;;;;;;;4989308;28;20045;-75
2024/01/02 14:42:09;;;;;;;0.40;0.30;;;;;;;;;;4984863;28;20041;-75
2024/01/02 14:44:37;;;;;;;0.30;0.30;;;;;;;;;;4993718;28;20057;-75
2024/01/02 14:47:18;;;;;;;0.20;0.20;;;;;;;;;;4999122;28;20048;-75
2024/01/02 14:49:51;;;;;;;0.20;0.20;;;;;;;;;;5004473;28;20064;-75
2024/01/02 14:52:35;;;;;;;0.20;0.20;;;;;;;;;;5011950;28;20530;-75
2024/01/02 14:55:10;;;;;;;0.20;0.20;;;;;;;;;;5010531;28;20037;-75